createdAt,value
2022-09-05T00:00:11.954Z,98017.50
2022-09-05T00:02:49.073Z,98023.63
2022-09-05T00:05:28.715Z,98007.06
2022-09-05T00:08:24.007Z,98005.88
2022-09-05T00:11:40.626Z,98018.63
2022-09-05T00:15:15.317Z,98009.56
2022-09-05T00:21:40.157Z,97997.09
2022-09-05T00:24:19.519Z,97991.75
2022-09-05T00:24:45.764Z,97994.69
2022-09-05T00:27:09.100Z,97994.69
2022-09-05T00:31:07.466Z,97993.41
2022-09-05T00:33:16.960Z,98002.47
2022-09-05T00:36:01.945Z,97998.06
2022-09-05T00:38:36.596Z,98006.31
2022-09-05T00:41:08.463Z,98009.34
2022-09-05T00:43:42.578Z,98013.31
2022-09-05T00:46:23.221Z,98014.03
2022-09-05T00:48:58.819Z,98011.69
2022-09-05T00:51:44.785Z,98012.56
2022-09-05T00:54:27.093Z,98015.22
2022-09-05T00:57:23.155Z,98024.13
2022-09-05T01:00:17.645Z,98021.44
2022-09-05T01:03:10.623Z,98023.56
2022-09-05T01:06:04.753Z,98020.22
2022-09-05T01:09:01.709Z,98021.44
2022-09-05T01:11:45.310Z,98022.97
2022-09-05T01:14:50.397Z,98017.13
2022-09-05T01:17:22.318Z,98020.72
2022-09-05T01:20:19.498Z,98028.03
2022-09-05T01:23:26.019Z,98021.94
2022-09-05T01:26:10.990Z,98027.09
2022-09-05T01:29:16.758Z,98023.47
2022-09-05T01:32:15.562Z,98025.88
2022-09-05T01:35:02.746Z,98027.44
2022-09-05T01:37:44.831Z,98025.53
2022-09-05T01:40:37.156Z,98020.28
2022-09-05T01:43:18.333Z,98018.47
2022-09-05T01:45:55.769Z,98020.19
2022-09-05T01:48:22.210Z,98012.38
2022-09-05T01:51:29.038Z,98025.75
2022-09-05T01:54:24.936Z,98022.25
2022-09-05T01:57:11.014Z,98025.09
2022-09-05T01:59:40.482Z,98027.50
2022-09-05T02:02:20.772Z,98027.56
2022-09-05T02:05:11.609Z,98035.56
2022-09-05T02:07:56.826Z,98026.19
2022-09-05T02:11:00.041Z,98028.56
2022-09-05T02:13:42.377Z,98030.53
2022-09-05T02:16:18.198Z,98029.94
2022-09-05T02:19:06.050Z,98028.03
2022-09-05T02:21:56.402Z,98031.63
2022-09-05T02:24:33.092Z,98024.09
2022-09-05T02:26:59.558Z,98023.94
2022-09-05T02:29:57.019Z,98029.03
2022-09-05T02:32:28.306Z,98030.41
2022-09-05T02:35:13.735Z,98039.47
2022-09-05T02:38:43.931Z,98031.66
2022-09-05T02:45:09.644Z,98031.72
2022-09-05T02:45:17.797Z,98026.22
2022-09-05T02:46:30.947Z,98021.50
2022-09-05T02:49:17.704Z,98030.81
2022-09-05T02:57:24.441Z,98015.72
2022-09-05T02:57:42.487Z,98016.91
2022-09-05T02:58:12.452Z,98015.88
2022-09-05T03:00:52.282Z,98016.28
2022-09-05T03:03:18.669Z,98013.81
2022-09-05T03:06:01.246Z,98023.28
2022-09-05T03:09:09.945Z,98025.25
2022-09-05T03:12:28.382Z,98040.72
2022-09-05T03:15:22.810Z,98043.88
2022-09-05T03:18:23.017Z,98031.41
2022-09-05T03:21:25.988Z,98043.88
2022-09-05T03:24:25.907Z,98046.19
2022-09-05T03:27:10.715Z,98042.41
2022-09-05T03:30:08.501Z,98037.59
2022-09-05T03:33:08.599Z,98039.19
2022-09-05T03:36:03.358Z,98043.25
2022-09-05T03:39:11.961Z,98044.13
2022-09-05T03:41:47.607Z,98044.31
2022-09-05T03:44:22.066Z,98044.25
2022-09-05T03:47:19.803Z,98038.88
2022-09-05T03:52:16.816Z,98033.50
2022-09-05T03:57:22.887Z,98033.56
2022-09-05T03:57:25.011Z,98031.22
2022-09-05T03:59:44.061Z,98032.94
2022-09-05T04:04:33.796Z,98034.13
2022-09-05T04:08:07.346Z,98034.59
2022-09-05T04:08:36.970Z,98032.97
2022-09-05T04:11:16.674Z,98034.47
2022-09-05T04:13:55.219Z,98035.44
2022-09-05T04:16:27.957Z,98031.00
2022-09-05T04:19:10.284Z,98029.94
2022-09-05T04:21:44.506Z,98018.59
2022-09-05T04:24:28.282Z,98024.91
2022-09-05T04:26:55.023Z,98023.72
2022-09-05T04:29:43.730Z,98024.56
2022-09-05T04:32:38.327Z,98030.84
2022-09-05T04:35:23.121Z,98024.22
2022-09-05T04:38:08.266Z,98028.59
2022-09-05T04:40:53.459Z,98029.41
2022-09-05T04:43:41.428Z,98037.09
2022-09-05T04:46:19.093Z,98048.59
2022-09-05T04:48:55.830Z,98054.44
2022-09-05T04:51:41.496Z,98054.72
2022-09-05T04:54:29.935Z,98055.88
2022-09-05T04:57:13.829Z,98056.59
2022-09-05T05:06:02.511Z,98061.63
2022-09-05T05:06:02.939Z,98053.47
2022-09-05T05:06:17.343Z,98062.00
2022-09-05T05:09:00.851Z,98062.09
2022-09-05T05:17:55.435Z,98068.25
2022-09-05T05:18:06.171Z,98067.47
2022-09-05T05:18:07.037Z,98067.31
2022-09-05T05:20:48.232Z,98077.75
2022-09-05T05:23:29.090Z,98092.91
2022-09-05T05:26:00.062Z,98089.69
2022-09-05T05:28:45.241Z,98099.69
2022-09-05T05:31:15.303Z,98096.34
2022-09-05T05:33:47.285Z,98093.91
2022-09-05T05:36:25.564Z,98096.28
2022-09-05T05:38:53.548Z,98095.88
2022-09-05T05:41:27.139Z,98094.88
2022-09-05T05:43:54.117Z,98088.75
2022-09-05T05:46:32.987Z,98091.41
2022-09-05T05:49:25.418Z,98095.50
2022-09-05T05:52:24.019Z,98099.56
2022-09-05T05:55:28.470Z,98094.59
2022-09-05T05:58:16.921Z,98093.06
2022-09-05T06:00:55.478Z,98103.91
2022-09-05T06:03:50.082Z,98095.34
2022-09-05T06:06:33.193Z,98099.66
2022-09-05T06:14:50.243Z,98097.56
2022-09-05T06:14:55.328Z,98096.94
2022-09-05T06:15:31.605Z,98107.41
2022-09-05T06:18:16.504Z,98101.13
2022-09-05T06:22:10.090Z,98100.97
2022-09-05T06:24:06.726Z,98096.22
2022-09-05T06:27:01.207Z,98110.94
2022-09-05T06:29:56.926Z,98109.06
2022-09-05T06:32:56.747Z,98111.94
2022-09-05T06:35:31.527Z,98113.28
2022-09-05T06:38:01.045Z,98115.25
2022-09-05T06:40:36.537Z,98121.00
2022-09-05T06:43:23.308Z,98116.53
2022-09-05T06:46:01.707Z,98113.75
2022-09-05T06:48:46.373Z,98113.66
2022-09-05T06:51:30.966Z,98116.50
2022-09-05T06:54:26.446Z,98120.81
2022-09-05T06:57:23.645Z,98123.53
2022-09-05T07:00:04.737Z,98117.13
2022-09-05T07:02:42.729Z,98123.81
2022-09-05T07:05:45.654Z,98123.22
2022-09-05T07:08:37.471Z,98119.97
2022-09-05T07:11:16.157Z,98123.06
2022-09-05T07:14:05.667Z,98122.44
2022-09-05T07:16:42.838Z,98126.03
2022-09-05T07:19:27.476Z,98133.91
2022-09-05T07:21:57.353Z,98127.50
2022-09-05T07:24:53.590Z,98136.13
2022-09-05T07:27:33.565Z,98130.19
2022-09-05T07:30:09.582Z,98128.81
2022-09-05T07:32:44.127Z,98128.53
2022-09-05T07:35:29.360Z,98131.66
2022-09-05T07:38:01.790Z,98130.22
2022-09-05T07:40:32.373Z,98133.72
2022-09-05T07:43:10.637Z,98132.75
2022-09-05T07:45:56.619Z,98127.78
2022-09-05T07:48:35.268Z,98138.13
2022-09-05T07:56:46.167Z,98137.75
2022-09-05T07:57:01.603Z,98134.94
2022-09-05T07:59:41.526Z,98138.69
2022-09-05T08:02:11.588Z,98142.38
2022-09-05T08:04:40.911Z,98141.50
2022-09-05T08:07:48.158Z,98138.25
2022-09-05T08:10:17.129Z,98141.50
2022-09-05T08:13:24.048Z,98133.66
2022-09-05T08:16:13.733Z,98139.16
2022-09-05T08:18:49.921Z,98135.06
2022-09-05T08:21:27.340Z,98129.47
2022-09-05T08:24:13.658Z,98133.34
2022-09-05T08:26:47.301Z,98133.41
2022-09-05T08:29:37.898Z,98133.50
2022-09-05T08:32:15.770Z,98123.56
2022-09-05T08:34:46.313Z,98126.47
2022-09-05T08:37:21.073Z,98130.06
2022-09-05T08:40:11.602Z,98131.28
2022-09-05T08:45:58.577Z,98122.81
2022-09-05T08:46:46.698Z,98116.53
2022-09-05T08:49:12.331Z,98123.56
2022-09-05T08:52:04.830Z,98112.81
2022-09-05T08:54:41.259Z,98111.66
2022-09-05T08:57:18.860Z,98111.66
2022-09-05T09:00:19.503Z,98104.59
2022-09-05T09:03:12.510Z,98112.69
2022-09-05T09:06:13.262Z,98096.84
2022-09-05T09:09:07.334Z,98100.75
2022-09-05T09:11:57.357Z,98101.38
2022-09-05T09:14:49.314Z,98108.50
2022-09-05T09:17:26.711Z,98095.09
2022-09-05T09:20:17.423Z,98096.34
2022-09-05T09:23:32.051Z,98110.38
2022-09-05T09:26:17.486Z,98103.56
2022-09-05T09:28:51.728Z,98103.69
2022-09-05T09:31:37.329Z,98095.19
2022-09-05T09:35:21.308Z,98099.63
2022-09-05T09:37:49.823Z,98093.84
2022-09-05T09:40:29.048Z,98095.50
2022-09-05T09:43:05.227Z,98095.31
2022-09-05T09:45:53.228Z,98088.94
2022-09-05T09:48:57.327Z,98096.41
2022-09-05T09:51:39.963Z,98088.13
2022-09-05T09:54:45.502Z,98089.72
2022-09-05T09:57:44.849Z,98088.09
2022-09-05T10:00:23.012Z,98080.16
2022-09-05T10:09:41.522Z,98083.41
2022-09-05T10:10:50.595Z,98084.00
2022-09-05T10:10:51.121Z,98075.31
2022-09-05T10:12:38.821Z,98076.63
2022-09-05T10:15:31.474Z,98067.38
2022-09-05T10:17:58.903Z,98074.69
2022-09-05T10:20:56.846Z,98066.47
2022-09-05T10:24:04.659Z,98066.41
2022-09-05T10:27:08.647Z,98064.63
2022-09-05T10:29:59.560Z,98068.84
2022-09-05T10:35:14.166Z,98065.00
2022-09-05T10:35:37.686Z,98058.63
2022-09-05T10:38:10.605Z,98054.47
2022-09-05T10:40:51.439Z,98046.72
2022-09-05T10:43:31.204Z,98040.56
2022-09-05T10:45:57.705Z,98042.66
2022-09-05T10:48:51.091Z,98039.91
2022-09-05T10:51:39.243Z,98038.41
2022-09-05T10:54:24.523Z,98037.63
2022-09-05T10:57:17.222Z,98046.31
2022-09-05T11:02:22.514Z,98041.97
2022-09-05T11:02:57.735Z,98031.56
2022-09-05T11:05:37.502Z,98031.53
2022-09-05T11:08:37.586Z,98030.47
2022-09-05T11:11:28.479Z,98034.03
2022-09-05T11:14:07.383Z,98026.28
2022-09-05T11:17:00.665Z,98030.25
2022-09-05T11:19:42.298Z,98020.56
2022-09-05T11:22:22.716Z,98013.75
2022-09-05T11:24:58.816Z,98018.56
2022-09-05T11:27:43.626Z,98016.88
2022-09-05T11:30:30.310Z,98011.59
2022-09-05T11:38:30.558Z,98002.66
2022-09-05T11:39:54.592Z,98010.31
2022-09-05T11:40:04.009Z,98002.38
2022-09-05T11:42:01.247Z,98001.56
2022-09-05T11:44:35.700Z,97998.53
2022-09-05T11:47:45.914Z,97994.44
2022-09-05T11:50:30.436Z,97994.47
2022-09-05T11:53:26.059Z,98003.97
2022-09-05T11:56:30.118Z,97994.56
2022-09-05T12:00:32.065Z,97998.34
2022-09-05T12:03:57.158Z,97995.84
2022-09-05T12:06:19.616Z,97986.59
2022-09-05T12:08:55.652Z,97987.59
2022-09-05T12:11:43.182Z,97987.69
2022-09-05T12:14:31.634Z,97980.16
2022-09-05T12:17:17.182Z,97970.97
2022-09-05T12:20:22.077Z,97974.44
2022-09-05T12:23:04.162Z,97971.06
2022-09-05T12:27:36.058Z,97973.34
2022-09-05T12:29:32.676Z,97962.22
2022-09-05T12:32:37.698Z,97973.78
2022-09-05T12:36:12.246Z,97975.50
2022-09-05T12:40:46.305Z,97958.97
2022-09-05T12:41:36.989Z,97966.47
2022-09-05T12:44:42.740Z,97965.19
2022-09-05T12:47:16.687Z,97961.94
2022-09-05T12:50:14.165Z,97962.03
2022-09-05T12:52:46.508Z,97954.53
2022-09-05T12:55:39.553Z,97953.81
2022-09-05T13:02:58.598Z,97946.22
2022-09-05T13:03:06.312Z,97952.28
2022-09-05T13:04:26.842Z,97941.59
2022-09-05T13:07:02.139Z,97948.84
2022-09-05T13:11:08.085Z,97940.78
2022-09-05T13:14:57.463Z,97932.13
2022-09-05T13:15:40.425Z,97934.31
2022-09-05T13:18:39.231Z,97931.44
2022-09-05T13:21:27.176Z,97934.31
2022-09-05T13:24:05.414Z,97921.53
2022-09-05T13:26:40.092Z,97920.91
2022-09-05T13:29:21.001Z,97924.03
2022-09-05T13:38:02.437Z,97917.97
2022-09-05T13:38:03.242Z,97918.88
2022-09-05T13:38:15.897Z,97912.38
2022-09-05T13:40:41.384Z,97910.47
2022-09-05T13:43:12.348Z,97903.34
2022-09-05T13:46:17.094Z,97899.41
2022-09-05T13:51:53.940Z,97897.03
2022-09-05T13:54:50.235Z,97897.69
2022-09-05T13:57:40.320Z,97886.75
2022-09-05T14:00:06.754Z,97888.09
2022-09-05T14:03:39.183Z,97876.66
2022-09-05T14:06:45.569Z,97880.56
2022-09-05T14:09:40.929Z,97887.22
2022-09-05T14:12:29.472Z,97878.50
2022-09-05T14:15:13.831Z,97878.56
2022-09-05T14:17:54.472Z,97872.81
2022-09-05T14:20:49.434Z,97868.22
2022-09-05T14:23:18.853Z,97860.38
2022-09-05T14:25:55.257Z,97866.63
2022-09-05T14:28:39.687Z,97858.00
2022-09-05T14:37:36.230Z,97861.63
2022-09-05T14:37:39.203Z,97859.47
2022-09-05T14:37:53.015Z,97849.06
2022-09-05T14:40:43.962Z,97850.31
2022-09-05T14:43:48.127Z,97850.22
2022-09-05T14:46:38.663Z,97842.59
2022-09-05T14:49:54.138Z,97845.31
2022-09-05T14:52:28.890Z,97837.94
2022-09-05T15:02:42.130Z,97833.81
2022-09-05T15:02:44.408Z,97836.41
2022-09-05T15:06:33.881Z,97828.91
2022-09-05T15:11:25.482Z,97824.19
2022-09-05T15:12:21.387Z,97827.31
2022-09-05T15:14:36.646Z,97829.38
2022-09-05T15:17:05.721Z,97824.06
2022-09-05T15:20:08.402Z,97819.84
2022-09-05T15:22:37.896Z,97818.91
2022-09-05T15:25:17.525Z,97818.16
2022-09-05T15:27:46.387Z,97814.88
2022-09-05T15:30:17.475Z,97815.53
2022-09-05T15:32:48.547Z,97811.50
2022-09-05T15:35:35.270Z,97809.59
2022-09-05T15:38:20.535Z,97811.03
2022-09-05T15:41:02.390Z,97804.06
2022-09-05T15:43:29.448Z,97806.03
2022-09-05T15:46:04.562Z,97797.75
2022-09-05T15:48:34.708Z,97809.94
2022-09-05T15:51:17.692Z,97797.88
2022-09-05T15:53:44.291Z,97796.44
2022-09-05T15:56:10.850Z,97802.03
2022-09-05T15:58:53.950Z,97793.81
2022-09-05T16:01:59.734Z,97794.03
2022-09-05T16:05:39.689Z,97797.06
2022-09-05T16:10:41.287Z,97789.41
2022-09-05T16:10:41.915Z,97785.66
2022-09-05T16:12:49.377Z,97788.63
2022-09-05T16:17:52.528Z,97782.31
2022-09-05T16:23:18.250Z,97777.38
2022-09-05T16:23:32.268Z,97780.44
2022-09-05T16:24:04.123Z,97772.31
2022-09-05T16:26:54.309Z,97778.47
2022-09-05T16:29:26.670Z,97773.44
2022-09-05T16:32:05.969Z,97775.34
2022-09-05T16:34:56.252Z,97760.25
2022-09-05T16:37:32.103Z,97773.00
2022-09-05T16:40:18.779Z,97771.69
2022-09-05T16:42:49.146Z,97768.16
2022-09-05T16:45:42.937Z,97771.00
2022-09-05T16:48:24.816Z,97773.81
2022-09-05T16:50:58.893Z,97771.00
2022-09-05T16:53:50.814Z,97770.13
2022-09-05T16:56:54.422Z,97771.38
2022-09-05T16:59:26.527Z,97765.31
2022-09-05T17:02:11.587Z,97776.81
2022-09-05T17:05:12.293Z,97769.69
2022-09-05T17:07:41.981Z,97771.50
2022-09-05T17:10:11.939Z,97767.69
2022-09-05T17:12:40.401Z,97776.41
2022-09-05T17:15:20.981Z,97776.66
2022-09-05T17:18:21.559Z,97777.69
2022-09-05T17:20:54.147Z,97769.31
2022-09-05T17:26:16.147Z,97770.59
2022-09-05T17:29:28.936Z,97771.59
2022-09-05T17:32:39.656Z,97765.19
2022-09-05T17:35:26.513Z,97766.63
2022-09-05T17:38:11.205Z,97769.41
2022-09-05T17:41:13.842Z,97770.59
2022-09-05T17:43:41.466Z,97765.66
2022-09-05T17:46:14.525Z,97773.47
2022-09-05T17:48:58.610Z,97759.91
2022-09-05T17:51:41.484Z,97758.00
2022-09-05T17:54:29.313Z,97759.16
2022-09-05T17:56:56.310Z,97760.28
2022-09-05T17:59:24.626Z,97766.28
2022-09-05T18:02:03.470Z,97762.91
2022-09-05T18:04:46.424Z,97762.75
2022-09-05T18:07:36.607Z,97765.44
2022-09-05T18:13:31.791Z,97768.16
2022-09-05T18:15:59.674Z,97777.41
2022-09-05T18:19:28.988Z,97773.97
2022-09-05T18:21:42.302Z,97776.84
2022-09-05T18:24:24.279Z,97780.28
2022-09-05T18:26:56.116Z,97783.38
2022-09-05T18:30:08.263Z,97777.66
2022-09-05T18:32:54.340Z,97788.91
2022-09-05T18:35:43.147Z,97780.84
2022-09-05T18:38:51.272Z,97780.97
2022-09-05T18:41:25.482Z,97775.53
2022-09-05T18:44:01.641Z,97787.34
2022-09-05T18:46:45.618Z,97791.19
2022-09-05T18:50:22.346Z,97791.16
2022-09-05T18:52:24.648Z,97791.56
2022-09-05T18:56:10.159Z,97789.28
2022-09-05T18:57:50.239Z,97790.50
2022-09-05T19:00:40.349Z,97788.69
2022-09-05T19:03:26.533Z,97793.81
2022-09-05T19:06:36.200Z,97791.41
2022-09-05T19:09:04.183Z,97792.44
2022-09-05T19:11:37.688Z,97796.81
2022-09-05T19:14:36.690Z,97795.75
2022-09-05T19:17:17.900Z,97796.59
2022-09-05T19:20:30.928Z,97790.66
2022-09-05T19:23:13.163Z,97793.88
2022-09-05T19:25:51.693Z,97795.91
2022-09-05T19:36:50.677Z,97797.03
2022-09-05T19:36:56.240Z,97796.66
2022-09-05T19:37:12.705Z,97797.38
2022-09-05T19:37:37.302Z,97799.03
2022-09-05T19:47:27.753Z,97794.56
2022-09-05T19:47:37.698Z,97800.91
2022-09-05T19:47:40.836Z,97805.22
2022-09-05T19:48:34.560Z,97802.47
2022-09-05T19:51:16.798Z,97796.63
2022-09-05T19:53:55.216Z,97789.59
2022-09-05T19:56:39.755Z,97793.94
2022-09-05T19:59:22.382Z,97791.81
2022-09-05T20:01:51.667Z,97790.28
2022-09-05T20:04:19.891Z,97794.63
2022-09-05T20:06:48.398Z,97786.63
2022-09-05T20:09:18.151Z,97788.19
2022-09-05T20:11:59.870Z,97778.78
2022-09-05T20:14:32.062Z,97781.13
2022-09-05T20:17:18.114Z,97775.91
2022-09-05T20:19:45.406Z,97782.53
2022-09-05T20:22:47.993Z,97776.81
2022-09-05T20:25:11.146Z,97784.56
2022-09-05T20:27:58.872Z,97778.53
2022-09-05T20:30:34.768Z,97771.91
2022-09-05T20:33:19.577Z,97773.47
2022-09-05T20:42:12.045Z,97775.16
2022-09-05T20:43:24.163Z,97773.34
2022-09-05T20:43:25.121Z,97778.41
2022-09-05T20:44:22.459Z,97778.25
2022-09-05T20:49:22.878Z,97772.56
2022-09-05T20:54:18.418Z,97775.53
2022-09-05T20:54:23.199Z,97771.34
2022-09-05T20:55:45.404Z,97775.97
2022-09-05T20:58:20.878Z,97768.44
2022-09-05T21:01:20.864Z,97769.22
2022-09-05T21:03:54.096Z,97774.75
2022-09-05T21:06:34.001Z,97772.56
2022-09-05T21:09:15.834Z,97778.75
2022-09-05T21:11:51.378Z,97778.13
2022-09-05T21:14:20.678Z,97785.53
2022-09-05T21:16:55.895Z,97782.59
2022-09-05T21:19:31.438Z,97789.81
2022-09-05T21:22:05.395Z,97783.34
2022-09-05T21:24:31.971Z,97782.75
2022-09-05T21:27:30.729Z,97782.09
2022-09-05T21:29:59.323Z,97781.00
2022-09-05T21:32:27.948Z,97784.69
2022-09-05T21:35:33.941Z,97780.06
2022-09-05T21:37:53.757Z,97786.97
2022-09-05T21:40:21.358Z,97782.53
2022-09-05T21:47:12.921Z,97780.94
2022-09-05T21:47:47.530Z,97782.97
2022-09-05T21:48:23.877Z,97796.19
2022-09-05T21:50:59.397Z,97784.00
2022-09-05T21:57:43.238Z,97791.53
2022-09-05T21:59:19.660Z,97791.50
2022-09-05T21:59:25.012Z,97790.88
2022-09-05T22:02:05.395Z,97781.63
2022-09-05T22:04:35.620Z,97788.56
2022-09-05T22:07:08.092Z,97792.97
2022-09-05T22:09:34.621Z,97789.59
2022-09-05T22:12:01.074Z,97783.44
2022-09-05T22:14:44.197Z,97787.09
2022-09-05T22:17:10.826Z,97781.84
2022-09-05T22:19:38.072Z,97779.97
2022-09-05T22:22:15.871Z,97778.72
2022-09-05T22:24:55.464Z,97776.56
2022-09-05T22:27:25.634Z,97773.50
2022-09-05T22:29:52.396Z,97779.03
2022-09-05T22:32:34.744Z,97769.53
2022-09-05T22:35:28.583Z,97771.94
2022-09-05T22:37:59.141Z,97768.84
2022-09-05T22:40:27.656Z,97766.03
2022-09-05T22:43:02.839Z,97763.06
2022-09-05T22:45:31.464Z,97761.66
2022-09-05T22:47:58.850Z,97759.78
2022-09-05T22:50:26.467Z,97770.22
2022-09-05T22:52:53.066Z,97766.78
2022-09-05T22:55:19.804Z,97771.06
2022-09-05T22:57:46.379Z,97768.88
2022-09-05T23:00:13.205Z,97766.16
2022-09-05T23:02:39.635Z,97763.34
2022-09-05T23:05:06.925Z,97755.31
2022-09-05T23:07:33.831Z,97767.72
2022-09-05T23:10:00.538Z,97773.69
2022-09-05T23:12:27.185Z,97763.63
2022-09-05T23:14:53.811Z,97754.41
2022-09-05T23:17:20.266Z,97763.63
2022-09-05T23:19:46.727Z,97760.50
2022-09-05T23:22:13.175Z,97753.44
2022-09-05T23:24:39.602Z,97748.19
2022-09-05T23:27:06.111Z,97752.50
2022-09-05T23:29:32.697Z,97751.53
2022-09-05T23:31:59.142Z,97760.25
2022-09-05T23:34:25.652Z,97754.09
2022-09-05T23:36:52.158Z,97752.66
2022-09-05T23:39:18.610Z,97740.06
2022-09-05T23:41:45.108Z,97744.06
2022-09-05T23:44:11.992Z,97753.56
2022-09-05T23:46:40.288Z,97744.06
2022-09-05T23:49:07.147Z,97753.56
2022-09-05T23:51:33.750Z,97748.94
2022-09-05T23:54:00.224Z,97747.38
2022-09-05T23:56:26.706Z,97754.03
2022-09-05T23:58:53.199Z,97744.97
